createdAt,value
2023-04-09T00:01:28.596Z,30.19
2023-04-09T00:03:55.202Z,30.26
2023-04-09T00:06:21.597Z,30.28
2023-04-09T00:08:47.895Z,30.19
2023-04-09T00:11:14.217Z,30.20
2023-04-09T00:13:40.653Z,30.16
2023-04-09T00:16:07.451Z,30.21
2023-04-09T00:18:33.869Z,30.05
2023-04-09T00:21:00.559Z,30.37
2023-04-09T00:23:26.911Z,30.23
2023-04-09T00:25:53.248Z,30.35
2023-04-09T00:28:19.644Z,30.09
2023-04-09T00:30:45.957Z,30.41
2023-04-09T00:33:12.287Z,30.27
2023-04-09T00:35:38.630Z,30.53
2023-04-09T00:38:04.964Z,30.17
2023-04-09T00:40:31.406Z,30.19
2023-04-09T00:42:57.722Z,30.27
2023-04-09T00:45:24.199Z,30.10
2023-04-09T00:47:50.624Z,30.08
2023-04-09T00:50:17.006Z,30.12
2023-04-09T00:52:43.332Z,30.10
2023-04-09T00:55:09.819Z,30.22
2023-04-09T00:57:36.374Z,30.12
2023-04-09T01:00:04.270Z,30.04
2023-04-09T01:02:31.317Z,30.25
2023-04-09T01:04:57.806Z,30.12
2023-04-09T01:07:31.728Z,30.06
2023-04-09T01:10:01.302Z,29.89
2023-04-09T01:12:31.527Z,30.15
2023-04-09T01:15:03.529Z,29.96
2023-04-09T01:17:38.433Z,30.07
2023-04-09T01:20:12.087Z,30.04
2023-04-09T01:22:56.738Z,30.06
2023-04-09T01:25:29.356Z,30.07
2023-04-09T01:28:13.951Z,29.96
2023-04-09T01:30:40.790Z,30.08
2023-04-09T01:33:07.196Z,30.24
2023-04-09T01:35:33.557Z,30.00
2023-04-09T01:37:59.911Z,29.98
2023-04-09T01:40:26.245Z,29.81
2023-04-09T01:42:52.562Z,29.75
2023-04-09T01:45:18.873Z,29.96
2023-04-09T01:47:45.266Z,29.90
2023-04-09T01:50:11.599Z,29.99
2023-04-09T01:52:37.926Z,29.90
2023-04-09T01:55:04.312Z,30.00
2023-04-09T01:57:30.766Z,30.15
2023-04-09T01:59:57.117Z,30.21
2023-04-09T02:02:29.130Z,30.08
2023-04-09T02:04:55.973Z,30.01
2023-04-09T02:07:27.360Z,30.00
2023-04-09T02:09:53.690Z,30.13
2023-04-09T02:12:20.358Z,30.03
2023-04-09T02:14:46.931Z,30.23
2023-04-09T02:17:13.244Z,30.08
2023-04-09T02:19:39.648Z,30.22
2023-04-09T02:22:05.980Z,30.13
2023-04-09T02:24:32.282Z,30.14
2023-04-09T02:26:58.591Z,30.10
2023-04-09T02:29:24.915Z,30.14
2023-04-09T02:31:53.126Z,30.19
2023-04-09T02:34:19.858Z,30.09
2023-04-09T02:36:46.156Z,30.12
2023-04-09T02:39:12.458Z,30.11
2023-04-09T02:41:38.773Z,30.11
2023-04-09T02:44:05.128Z,29.92
2023-04-09T02:46:31.566Z,30.08
2023-04-09T02:48:57.899Z,30.14
2023-04-09T02:51:24.221Z,30.06
2023-04-09T02:53:50.567Z,30.17
2023-04-09T02:56:16.894Z,30.08
2023-04-09T02:58:43.216Z,30.10
2023-04-09T03:01:09.585Z,30.01
2023-04-09T03:03:37.388Z,30.23
2023-04-09T03:06:03.823Z,30.01
2023-04-09T03:08:30.159Z,30.11
2023-04-09T03:10:56.736Z,30.08
2023-04-09T03:13:23.062Z,30.21
2023-04-09T03:15:53.105Z,30.04
2023-04-09T03:18:19.472Z,30.13
2023-04-09T03:20:46.367Z,30.03
2023-04-09T03:23:12.683Z,30.10
2023-04-09T03:25:39.046Z,30.17
2023-04-09T03:28:05.619Z,30.11
2023-04-09T03:30:31.936Z,30.06
2023-04-09T03:32:59.447Z,30.03
2023-04-09T03:35:26.138Z,30.18
2023-04-09T03:37:52.449Z,30.29
2023-04-09T03:40:18.770Z,30.15
2023-04-09T03:42:45.206Z,30.13
2023-04-09T03:45:11.771Z,30.08
2023-04-09T03:47:38.118Z,30.13
2023-04-09T03:50:04.522Z,30.18
2023-04-09T03:52:31.050Z,30.17
2023-04-09T03:54:57.361Z,30.22
2023-04-09T03:57:23.676Z,29.98
2023-04-09T03:59:50.026Z,30.19
2023-04-09T04:02:16.420Z,29.97
2023-04-09T04:04:42.845Z,30.04
2023-04-09T04:07:09.199Z,30.03
2023-04-09T04:09:35.793Z,30.11
2023-04-09T04:12:02.343Z,30.23
2023-04-09T04:14:28.773Z,30.09
2023-04-09T04:16:55.991Z,30.11
2023-04-09T04:19:22.306Z,29.94
2023-04-09T04:21:48.639Z,30.02
2023-04-09T04:24:15.189Z,29.83
2023-04-09T04:26:41.524Z,29.84
2023-04-09T04:29:07.873Z,29.90
2023-04-09T04:31:34.245Z,29.89
2023-04-09T04:34:00.624Z,29.91
2023-04-09T04:36:26.972Z,29.81
2023-04-09T04:38:53.561Z,29.77
2023-04-09T04:41:20.785Z,29.91
2023-04-09T04:43:47.145Z,29.97
2023-04-09T04:46:13.496Z,29.89
2023-04-09T04:48:39.869Z,30.02
2023-04-09T04:51:06.186Z,29.86
2023-04-09T04:53:32.489Z,29.91
2023-04-09T04:55:58.823Z,29.90
2023-04-09T04:58:25.137Z,29.98
2023-04-09T05:00:51.473Z,29.99
2023-04-09T05:03:17.940Z,29.90
2023-04-09T05:05:45.340Z,30.12
2023-04-09T05:08:11.648Z,30.00
2023-04-09T05:10:40.286Z,29.91
2023-04-09T05:13:06.600Z,29.76
2023-04-09T05:15:32.906Z,29.46
2023-04-09T05:17:59.574Z,29.63
2023-04-09T05:20:27.166Z,29.26
2023-04-09T05:22:53.493Z,29.46
2023-04-09T05:25:19.820Z,29.55
2023-04-09T05:27:46.308Z,29.42
2023-04-09T05:30:13.362Z,29.32
2023-04-09T05:32:39.715Z,29.21
2023-04-09T05:35:06.209Z,29.12
2023-04-09T05:37:32.955Z,29.26
2023-04-09T05:39:59.281Z,29.22
2023-04-09T05:42:25.612Z,29.46
2023-04-09T05:44:51.938Z,29.45
2023-04-09T05:47:18.272Z,29.61
2023-04-09T05:49:44.620Z,29.73
2023-04-09T05:52:10.951Z,29.66
2023-04-09T05:54:37.282Z,29.65
2023-04-09T05:57:03.633Z,29.68
2023-04-09T05:59:29.971Z,29.61
2023-04-09T06:01:56.400Z,29.60
2023-04-09T06:04:22.945Z,29.65
2023-04-09T06:06:49.446Z,29.81
2023-04-09T06:09:15.781Z,29.73
2023-04-09T06:11:42.162Z,29.81
2023-04-09T06:14:08.485Z,29.74
2023-04-09T06:16:34.886Z,29.70
2023-04-09T06:19:01.197Z,29.60
2023-04-09T06:21:27.513Z,29.45
2023-04-09T06:23:54.279Z,29.55
2023-04-09T06:26:21.461Z,29.52
2023-04-09T06:28:47.865Z,29.40
2023-04-09T06:31:14.222Z,29.51
2023-04-09T06:33:40.587Z,29.55
2023-04-09T06:36:07.127Z,29.50
2023-04-09T06:38:33.490Z,29.69
2023-04-09T06:40:59.797Z,29.67
2023-04-09T06:43:26.108Z,29.69
2023-04-09T06:45:52.472Z,29.62
2023-04-09T06:48:18.832Z,29.40
2023-04-09T06:50:45.319Z,29.35
2023-04-09T06:53:11.669Z,29.32
2023-04-09T06:55:37.988Z,29.33
2023-04-09T06:58:04.359Z,29.25
2023-04-09T07:00:30.765Z,29.24
2023-04-09T07:02:57.470Z,29.25
2023-04-09T07:05:24.469Z,29.06
2023-04-09T07:07:50.930Z,29.26
2023-04-09T07:10:17.260Z,29.16
2023-04-09T07:12:43.615Z,29.22
2023-04-09T07:15:09.989Z,29.31
2023-04-09T07:17:36.580Z,29.41
2023-04-09T07:20:03.950Z,29.37
2023-04-09T07:22:30.729Z,29.32
2023-04-09T07:24:57.232Z,29.39
2023-04-09T07:27:23.918Z,29.34
2023-04-09T07:29:50.264Z,29.84
2023-04-09T07:32:16.723Z,30.21
2023-04-09T07:34:43.360Z,30.07
2023-04-09T07:37:09.803Z,29.82
2023-04-09T07:39:36.308Z,29.81
2023-04-09T07:42:02.884Z,29.69
2023-04-09T07:44:29.218Z,29.55
2023-04-09T07:46:55.605Z,29.63
2023-04-09T07:49:22.112Z,29.60
2023-04-09T07:51:48.414Z,29.59
2023-04-09T07:54:14.754Z,29.62
2023-04-09T07:56:41.150Z,29.47
2023-04-09T07:59:07.530Z,29.42
2023-04-09T08:01:34.152Z,29.52
2023-04-09T08:04:00.659Z,29.53
2023-04-09T08:06:27.561Z,29.27
2023-04-09T08:08:54.149Z,29.35
2023-04-09T08:11:25.173Z,29.35
2023-04-09T08:13:52.085Z,29.16
2023-04-09T08:16:18.606Z,29.49
2023-04-09T08:18:44.987Z,29.60
2023-04-09T08:21:11.412Z,30.07
2023-04-09T08:23:37.790Z,32.76
2023-04-09T08:26:04.109Z,33.19
2023-04-09T08:28:30.426Z,34.25
2023-04-09T08:30:56.739Z,34.42
2023-04-09T08:33:23.100Z,33.79
2023-04-09T08:35:49.402Z,33.40
2023-04-09T08:38:16.304Z,32.22
2023-04-09T08:40:42.619Z,31.10
2023-04-09T08:43:09.002Z,30.74
2023-04-09T08:45:35.380Z,30.38
2023-04-09T08:48:03.659Z,30.23
2023-04-09T08:50:31.059Z,30.13
2023-04-09T08:52:57.389Z,29.99
2023-04-09T08:55:23.725Z,29.85
2023-04-09T08:57:50.232Z,29.95
2023-04-09T09:00:16.561Z,29.86
2023-04-09T09:03:02.765Z,29.79
2023-04-09T09:05:35.237Z,29.64
2023-04-09T09:08:01.655Z,29.48
2023-04-09T09:10:43.891Z,29.48
2023-04-09T09:13:36.568Z,29.39
2023-04-09T09:16:12.475Z,29.38
2023-04-09T09:18:39.360Z,29.19
2023-04-09T09:21:12.480Z,29.18
2023-04-09T09:23:38.823Z,29.12
2023-04-09T09:26:12.325Z,29.06
2023-04-09T09:28:38.655Z,28.86
2023-04-09T09:31:08.458Z,28.79
2023-04-09T09:33:34.889Z,28.84
2023-04-09T09:36:03.837Z,28.80
2023-04-09T09:38:30.409Z,28.73
2023-04-09T09:40:57.111Z,28.72
2023-04-09T09:43:23.878Z,28.72
2023-04-09T09:45:50.324Z,28.67
2023-04-09T09:48:16.707Z,28.84
2023-04-09T09:50:43.136Z,29.09
2023-04-09T09:53:10.445Z,29.13
2023-04-09T09:55:40.535Z,29.32
2023-04-09T09:58:11.976Z,29.54
2023-04-09T10:00:38.357Z,29.45
2023-04-09T10:03:11.622Z,29.48
2023-04-09T10:05:39.089Z,29.56
2023-04-09T10:08:05.445Z,29.72
2023-04-09T10:10:32.371Z,29.57
2023-04-09T10:12:58.887Z,29.72
2023-04-09T10:15:25.807Z,29.76
2023-04-09T10:17:52.175Z,29.75
2023-04-09T10:20:27.089Z,29.72
2023-04-09T10:22:53.630Z,29.85
2023-04-09T10:25:20.654Z,30.02
2023-04-09T10:27:49.126Z,29.71
2023-04-09T10:30:31.300Z,30.12
2023-04-09T10:33:07.837Z,30.04
2023-04-09T10:35:34.174Z,29.83
2023-04-09T10:38:00.515Z,29.96
2023-04-09T10:40:27.944Z,30.05
2023-04-09T10:42:54.799Z,30.00
2023-04-09T10:45:22.484Z,30.11
2023-04-09T10:47:52.134Z,30.04
2023-04-09T10:50:18.388Z,30.11
2023-04-09T10:52:45.013Z,30.27
2023-04-09T10:55:33.809Z,30.23
2023-04-09T10:58:00.161Z,30.52
2023-04-09T11:00:26.534Z,30.62
2023-04-09T11:03:11.583Z,30.85
2023-04-09T11:05:40.995Z,30.73
2023-04-09T11:08:10.894Z,30.78
2023-04-09T11:10:41.154Z,30.87
2023-04-09T11:13:08.135Z,30.96
2023-04-09T11:15:34.903Z,31.01
2023-04-09T11:18:02.197Z,30.79
2023-04-09T11:20:28.630Z,30.83
2023-04-09T11:22:55.192Z,30.74
2023-04-09T11:25:27.111Z,30.73
2023-04-09T11:27:53.424Z,30.78
2023-04-09T11:30:19.822Z,30.75
2023-04-09T11:32:46.176Z,30.74
2023-04-09T11:35:13.365Z,30.77
2023-04-09T11:37:39.800Z,30.58
2023-04-09T11:40:06.373Z,30.58
2023-04-09T11:42:32.743Z,30.47
2023-04-09T11:44:59.068Z,30.63
2023-04-09T11:47:25.560Z,30.50
2023-04-09T11:49:51.918Z,30.48
2023-04-09T11:52:18.243Z,30.40
2023-04-09T11:54:50.723Z,30.41
2023-04-09T11:57:17.040Z,30.20
2023-04-09T11:59:43.444Z,30.23
2023-04-09T12:02:09.858Z,30.22
2023-04-09T12:04:36.426Z,30.07
2023-04-09T12:07:02.875Z,30.28
2023-04-09T12:09:29.246Z,30.13
2023-04-09T12:11:57.368Z,30.27
2023-04-09T12:14:23.765Z,30.09
2023-04-09T12:16:53.160Z,30.14
2023-04-09T12:19:20.455Z,29.93
2023-04-09T12:21:49.776Z,29.82
2023-04-09T12:24:17.028Z,30.08
2023-04-09T12:26:43.535Z,29.90
2023-04-09T12:29:09.865Z,29.93
2023-04-09T12:31:36.710Z,29.89
2023-04-09T12:34:03.117Z,30.00
2023-04-09T12:36:29.826Z,29.87
2023-04-09T12:38:56.307Z,30.02
2023-04-09T12:41:22.616Z,29.88
2023-04-09T12:43:49.268Z,29.91
2023-04-09T12:46:15.782Z,29.86
2023-04-09T12:48:42.133Z,29.92
2023-04-09T12:51:08.913Z,29.79
2023-04-09T12:53:35.421Z,29.93
2023-04-09T12:56:01.758Z,29.69
2023-04-09T12:58:28.416Z,29.74
2023-04-09T13:00:56.764Z,29.61
2023-04-09T13:03:23.705Z,29.79
2023-04-09T13:05:50.339Z,29.66
2023-04-09T13:08:17.156Z,29.59
2023-04-09T13:10:43.476Z,29.67
2023-04-09T13:13:12.209Z,29.49
2023-04-09T13:15:38.980Z,29.61
2023-04-09T13:18:05.352Z,29.39
2023-04-09T13:20:31.702Z,29.50
2023-04-09T13:22:58.014Z,29.38
2023-04-09T13:25:24.353Z,29.40
2023-04-09T13:27:50.713Z,29.46
2023-04-09T13:30:17.064Z,29.25
2023-04-09T13:32:43.715Z,29.41
2023-04-09T13:35:10.839Z,29.24
2023-04-09T13:37:37.165Z,29.34
2023-04-09T13:40:04.056Z,29.43
2023-04-09T13:42:31.381Z,29.22
2023-04-09T13:44:58.646Z,29.27
2023-04-09T13:47:24.989Z,29.21
2023-04-09T13:49:54.194Z,29.17
2023-04-09T13:52:20.536Z,29.23
2023-04-09T13:54:46.881Z,29.08
2023-04-09T13:57:13.187Z,29.17
2023-04-09T13:59:41.611Z,29.15
2023-04-09T14:02:08.850Z,29.03
2023-04-09T14:04:35.284Z,29.20
2023-04-09T14:07:01.678Z,29.16
2023-04-09T14:09:28.025Z,29.17
2023-04-09T14:11:55.100Z,29.08
2023-04-09T14:14:21.436Z,29.07
2023-04-09T14:16:48.316Z,29.08
2023-04-09T14:19:14.699Z,29.14
2023-04-09T14:21:41.139Z,28.96
2023-04-09T14:24:07.740Z,29.01
2023-04-09T14:26:34.077Z,29.13
2023-04-09T14:29:00.555Z,29.30
2023-04-09T14:31:26.924Z,29.26
2023-04-09T14:33:53.417Z,29.19
2023-04-09T14:36:19.810Z,28.85
2023-04-09T14:38:46.192Z,28.94
2023-04-09T14:41:12.569Z,28.99
2023-04-09T14:43:39.607Z,29.29
2023-04-09T14:46:07.057Z,29.04
2023-04-09T14:48:34.159Z,29.31
2023-04-09T14:51:00.503Z,29.13
2023-04-09T14:53:26.832Z,29.32
2023-04-09T14:55:53.152Z,29.27
2023-04-09T14:58:19.499Z,29.38
2023-04-09T15:00:45.881Z,29.25
2023-04-09T15:03:12.553Z,29.44
2023-04-09T15:05:39.198Z,29.12
2023-04-09T15:08:05.828Z,28.95
2023-04-09T15:10:32.154Z,29.16
2023-04-09T15:12:58.467Z,29.21
2023-04-09T15:15:24.790Z,29.22
2023-04-09T15:17:51.384Z,29.17
2023-04-09T15:20:18.380Z,29.28
2023-04-09T15:22:44.699Z,29.12
2023-04-09T15:25:13.739Z,29.34
2023-04-09T15:27:40.827Z,29.30
2023-04-09T15:30:07.544Z,29.23
2023-04-09T15:32:33.873Z,29.46
2023-04-09T15:35:00.752Z,29.66
2023-04-09T15:37:27.118Z,29.53
2023-04-09T15:39:53.430Z,29.27
2023-04-09T15:42:22.634Z,29.09
2023-04-09T15:44:49.713Z,28.97
2023-04-09T15:47:16.205Z,28.90
2023-04-09T15:49:42.697Z,29.10
2023-04-09T15:52:09.044Z,29.06
2023-04-09T15:54:35.612Z,29.07
2023-04-09T15:57:02.104Z,29.01
2023-04-09T15:59:28.443Z,29.03
2023-04-09T16:01:54.821Z,29.22
2023-04-09T16:04:21.260Z,29.34
2023-04-09T16:06:48.211Z,29.37
2023-04-09T16:09:14.552Z,29.34
2023-04-09T16:11:41.018Z,29.34
2023-04-09T16:14:08.976Z,29.24
2023-04-09T16:16:35.923Z,29.26
2023-04-09T16:19:02.243Z,29.51
2023-04-09T16:21:29.058Z,29.52
2023-04-09T16:23:55.937Z,29.61
2023-04-09T16:26:22.251Z,29.54
2023-04-09T16:28:48.632Z,29.58
2023-04-09T16:31:15.363Z,29.96
2023-04-09T16:33:41.803Z,30.23
2023-04-09T16:36:08.163Z,30.30
2023-04-09T16:38:34.531Z,30.47
2023-04-09T16:41:00.963Z,30.56
2023-04-09T16:43:27.313Z,30.99
2023-04-09T16:45:53.670Z,30.95
2023-04-09T16:48:20.096Z,31.03
2023-04-09T16:50:46.436Z,31.19
2023-04-09T16:53:13.071Z,31.51
2023-04-09T16:55:39.483Z,31.71
2023-04-09T16:58:05.817Z,31.69
2023-04-09T17:00:32.439Z,32.00
2023-04-09T17:02:58.938Z,31.91
2023-04-09T17:05:25.415Z,31.99
2023-04-09T17:07:53.493Z,32.36
2023-04-09T17:10:22.267Z,32.32
2023-04-09T17:12:48.631Z,32.38
2023-04-09T17:15:15.014Z,32.55
2023-04-09T17:17:41.406Z,32.74
2023-04-09T17:20:07.909Z,32.88
2023-04-09T17:22:35.099Z,33.02
2023-04-09T17:25:01.871Z,33.03
2023-04-09T17:27:28.586Z,33.20
2023-04-09T17:29:54.926Z,33.37
2023-04-09T17:32:21.275Z,33.42
2023-04-09T17:34:50.739Z,33.54
2023-04-09T17:37:17.055Z,33.05
2023-04-09T17:39:43.371Z,33.28
2023-04-09T17:42:11.789Z,33.40
2023-04-09T17:44:38.508Z,33.50
2023-04-09T17:47:05.650Z,33.69
2023-04-09T17:49:32.240Z,33.27
2023-04-09T17:51:58.874Z,33.51
2023-04-09T17:54:25.809Z,33.52
2023-04-09T17:56:52.327Z,33.52
2023-04-09T17:59:18.715Z,33.13
2023-04-09T18:01:45.096Z,33.31
2023-04-09T18:04:11.856Z,33.01
2023-04-09T18:06:38.411Z,33.16
2023-04-09T18:09:04.761Z,33.02
2023-04-09T18:11:31.188Z,33.05
2023-04-09T18:13:57.567Z,32.75
2023-04-09T18:16:23.916Z,32.68
2023-04-09T18:18:50.253Z,32.65
2023-04-09T18:21:17.098Z,33.03
2023-04-09T18:23:43.462Z,32.76
2023-04-09T18:26:09.834Z,32.53
2023-04-09T18:28:36.299Z,32.45
2023-04-09T18:31:02.679Z,32.15
2023-04-09T18:33:29.030Z,32.32
2023-04-09T18:35:55.437Z,32.31
2023-04-09T18:38:21.818Z,32.24
2023-04-09T18:40:48.151Z,32.15
2023-04-09T18:43:14.477Z,32.39
2023-04-09T18:45:40.920Z,32.34
2023-04-09T18:48:08.655Z,32.46
2023-04-09T18:50:35.125Z,32.44
2023-04-09T18:53:03.375Z,32.43
2023-04-09T18:55:29.849Z,32.21
2023-04-09T18:57:57.341Z,32.34
2023-04-09T19:00:23.683Z,32.29
2023-04-09T19:02:50.116Z,32.18
2023-04-09T19:05:17.484Z,32.35
2023-04-09T19:07:43.813Z,32.21
2023-04-09T19:10:10.313Z,32.25
2023-04-09T19:12:37.222Z,32.42
2023-04-09T19:15:04.732Z,32.40
2023-04-09T19:17:32.030Z,32.50
2023-04-09T19:19:58.433Z,32.34
2023-04-09T19:22:24.788Z,32.42
2023-04-09T19:24:51.165Z,32.57
2023-04-09T19:27:18.583Z,32.61
2023-04-09T19:29:46.525Z,32.36
2023-04-09T19:32:13.349Z,32.64
2023-04-09T19:34:39.778Z,32.41
2023-04-09T19:37:06.218Z,32.58
2023-04-09T19:39:32.594Z,32.55
2023-04-09T19:41:58.924Z,32.55
2023-04-09T19:44:25.435Z,32.46
2023-04-09T19:46:52.006Z,32.46
2023-04-09T19:49:18.349Z,32.36
2023-04-09T19:51:44.833Z,32.46
2023-04-09T19:54:11.201Z,32.23
2023-04-09T19:56:38.258Z,32.49
2023-04-09T19:59:04.689Z,32.23
2023-04-09T20:01:31.237Z,32.22
2023-04-09T20:03:57.819Z,32.38
2023-04-09T20:06:24.330Z,32.23
2023-04-09T20:08:51.097Z,32.16
2023-04-09T20:11:17.777Z,32.27
2023-04-09T20:13:44.116Z,32.35
2023-04-09T20:16:10.459Z,32.24
2023-04-09T20:18:36.901Z,32.12
2023-04-09T20:21:03.259Z,32.27
2023-04-09T20:23:30.235Z,31.74
2023-04-09T20:25:56.851Z,31.59
2023-04-09T20:28:23.208Z,31.41
2023-04-09T20:30:49.619Z,31.52
2023-04-09T20:33:16.078Z,31.27
2023-04-09T20:35:42.485Z,31.07
2023-04-09T20:38:08.813Z,30.98
2023-04-09T20:40:35.490Z,30.86
2023-04-09T20:43:01.872Z,30.32
2023-04-09T20:45:28.211Z,30.50
2023-04-09T20:47:54.837Z,30.58
2023-04-09T20:50:21.683Z,30.52
2023-04-09T20:52:49.518Z,30.40
2023-04-09T20:55:15.841Z,30.55
2023-04-09T20:57:42.342Z,30.42
2023-04-09T21:00:08.897Z,30.65
2023-04-09T21:02:35.374Z,30.49
2023-04-09T21:05:15.105Z,30.36
2023-04-09T21:07:47.991Z,30.61
2023-04-09T21:10:14.310Z,30.42
2023-04-09T21:12:40.667Z,30.26
2023-04-09T21:15:07.220Z,30.46
2023-04-09T21:17:33.541Z,30.62
2023-04-09T21:20:00.240Z,30.75
2023-04-09T21:22:26.787Z,30.69
2023-04-09T21:24:53.496Z,30.72
2023-04-09T21:27:20.199Z,30.68
2023-04-09T21:29:46.626Z,30.89
2023-04-09T21:32:12.965Z,30.74
2023-04-09T21:34:39.521Z,30.28
2023-04-09T21:37:06.230Z,30.61
2023-04-09T21:39:32.547Z,30.58
2023-04-09T21:41:58.885Z,30.80
2023-04-09T21:44:25.310Z,30.26
2023-04-09T21:46:52.175Z,30.65
2023-04-09T21:49:18.479Z,30.82
2023-04-09T21:51:45.204Z,30.46
2023-04-09T21:54:11.509Z,30.17
2023-04-09T21:56:37.881Z,30.46
2023-04-09T21:59:04.235Z,30.59
2023-04-09T22:01:31.398Z,30.84
2023-04-09T22:03:58.138Z,30.41
2023-04-09T22:06:24.560Z,30.28
2023-04-09T22:08:56.199Z,30.38
2023-04-09T22:11:27.511Z,30.67
2023-04-09T22:13:54.992Z,30.45
2023-04-09T22:16:21.698Z,30.60
2023-04-09T22:18:48.205Z,30.88
2023-04-09T22:21:15.585Z,30.82
2023-04-09T22:23:41.918Z,30.53
2023-04-09T22:26:08.233Z,30.83
2023-04-09T22:28:34.755Z,30.99
2023-04-09T22:31:01.253Z,30.84
2023-04-09T22:33:27.623Z,30.99
2023-04-09T22:35:54.113Z,30.80
2023-04-09T22:38:20.944Z,30.72
2023-04-09T22:40:47.306Z,31.09
2023-04-09T22:43:13.757Z,31.04
2023-04-09T22:45:40.072Z,31.03
2023-04-09T22:48:07.592Z,31.15
2023-04-09T22:50:34.121Z,30.67
2023-04-09T22:53:00.964Z,31.07
2023-04-09T22:55:27.383Z,31.25
2023-04-09T22:57:54.804Z,31.04
2023-04-09T23:00:21.118Z,30.45
2023-04-09T23:02:47.637Z,30.72
2023-04-09T23:05:14.486Z,30.31
2023-04-09T23:07:42.656Z,30.64
2023-04-09T23:10:09.138Z,30.94
2023-04-09T23:12:35.814Z,30.80
2023-04-09T23:15:02.173Z,30.71
2023-04-09T23:17:28.590Z,30.68
2023-04-09T23:19:54.941Z,30.85
2023-04-09T23:22:21.278Z,30.68
2023-04-09T23:24:47.578Z,30.81
2023-04-09T23:27:14.073Z,30.92
2023-04-09T23:29:40.411Z,30.84
2023-04-09T23:32:07.016Z,30.96
2023-04-09T23:34:33.344Z,30.86
2023-04-09T23:36:59.895Z,30.74
2023-04-09T23:39:26.373Z,30.69
2023-04-09T23:41:52.741Z,30.40
2023-04-09T23:44:19.382Z,29.92
2023-04-09T23:46:45.749Z,29.52
2023-04-09T23:49:12.238Z,29.43
2023-04-09T23:51:38.566Z,29.10
2023-04-09T23:54:04.932Z,28.88
2023-04-09T23:56:31.288Z,29.25
2023-04-09T23:58:57.607Z,29.36
